sensor_id;sensor_type;location;lat;lon;timestamp;pressure;altitude;pressure_sealevel;temperature;humidity
21826;BME280;11075;47.944;11.776;2023-02-28T00:00:37;95128.16;;;0.95;24.27
21826;BME280;11075;47.944;11.776;2023-02-28T00:03:04;95115.28;;;-0.84;25.67
21826;BME280;11075;47.944;11.776;2023-02-28T00:05:33;95128.94;;;0.75;23.87
21826;BME280;11075;47.944;11.776;2023-02-28T00:08:00;95113.47;;;-1.16;26.69
21826;BME280;11075;47.944;11.776;2023-02-28T00:10:29;95113.88;;;-0.97;26.33
21826;BME280;11075;47.944;11.776;2023-02-28T00:13:03;95117.66;;;0.17;24.79
21826;BME280;11075;47.944;11.776;2023-02-28T00:15:31;95114.56;;;-0.80;25.81
21826;BME280;11075;47.944;11.776;2023-02-28T00:17:58;95114.72;;;-1.55;26.34
21826;BME280;11075;47.944;11.776;2023-02-28T00:20:26;95117.53;;;-0.19;25.19
21826;BME280;11075;47.944;11.776;2023-02-28T00:22:53;95122.81;;;-0.71;25.27
21826;BME280;11075;47.944;11.776;2023-02-28T00:25:23;95111.59;;;-1.20;26.12
21826;BME280;11075;47.944;11.776;2023-02-28T00:27:50;95114.38;;;-1.32;25.78
21826;BME280;11075;47.944;11.776;2023-02-28T00:30:22;95107.41;;;0.41;24.33
21826;BME280;11075;47.944;11.776;2023-02-28T00:32:50;95120.09;;;-1.13;25.33
21826;BME280;11075;47.944;11.776;2023-02-28T00:35:17;95124.59;;;0.28;23.73
21826;BME280;11075;47.944;11.776;2023-02-28T00:37:44;95117.03;;;0.88;24.10
21826;BME280;11075;47.944;11.776;2023-02-28T00:40:11;95129.25;;;-0.10;24.13
21826;BME280;11075;47.944;11.776;2023-02-28T00:42:39;95123.63;;;-1.61;25.87
21826;BME280;11075;47.944;11.776;2023-02-28T00:45:07;95119.66;;;1.08;23.26
21826;BME280;11075;47.944;11.776;2023-02-28T00:47:37;95114.31;;;-0.31;24.40
21826;BME280;11075;47.944;11.776;2023-02-28T00:50:05;95103.88;;;-0.53;25.42
21826;BME280;11075;47.944;11.776;2023-02-28T00:52:32;95106.53;;;-2.24;27.10
21826;BME280;11075;47.944;11.776;2023-02-28T00:54:59;95102.06;;;-0.84;25.46
21826;BME280;11075;47.944;11.776;2023-02-28T00:57:26;95105.50;;;-1.21;25.73
21826;BME280;11075;47.944;11.776;2023-02-28T00:59:53;95110.63;;;1.34;22.98
21826;BME280;11075;47.944;11.776;2023-02-28T01:02:23;95109.28;;;1.32;22.80
21826;BME280;11075;47.944;11.776;2023-02-28T01:04:51;95120.13;;;1.71;22.20
21826;BME280;11075;47.944;11.776;2023-02-28T01:07:19;95102.88;;;-0.42;24.76
21826;BME280;11075;47.944;11.776;2023-02-28T01:09:46;95102.94;;;-1.43;25.54
21826;BME280;11075;47.944;11.776;2023-02-28T01:12:12;95112.72;;;1.58;23.07
21826;BME280;11075;47.944;11.776;2023-02-28T01:14:39;95110.38;;;0.80;23.34
21826;BME280;11075;47.944;11.776;2023-02-28T01:17:07;95119.56;;;1.84;22.05
21826;BME280;11075;47.944;11.776;2023-02-28T01:19:34;95133.38;;;1.86;21.68
21826;BME280;11075;47.944;11.776;2023-02-28T01:22:05;95114.38;;;0.82;23.27
21826;BME280;11075;47.944;11.776;2023-02-28T01:24:33;95121.19;;;2.84;20.86
21826;BME280;11075;47.944;11.776;2023-02-28T01:27:00;95123.50;;;2.51;21.19
21826;BME280;11075;47.944;11.776;2023-02-28T01:29:27;95116.75;;;0.99;22.77
21826;BME280;11075;47.944;11.776;2023-02-28T01:31:54;95113.03;;;0.60;22.81
21826;BME280;11075;47.944;11.776;2023-02-28T01:34:21;95123.81;;;1.80;21.90
21826;BME280;11075;47.944;11.776;2023-02-28T01:36:48;95115.75;;;2.99;20.96
21826;BME280;11075;47.944;11.776;2023-02-28T01:39:14;95112.72;;;1.58;22.09
21826;BME280;11075;47.944;11.776;2023-02-28T01:41:41;95120.41;;;2.34;21.15
21826;BME280;11075;47.944;11.776;2023-02-28T01:47:14;95099.50;;;-0.22;23.67
21826;BME280;11075;47.944;11.776;2023-02-28T01:49:42;95103.59;;;1.89;21.84
21826;BME280;11075;47.944;11.776;2023-02-28T01:52:11;95120.78;;;2.61;20.80
21826;BME280;11075;47.944;11.776;2023-02-28T01:54:49;95102.13;;;1.27;22.42
21826;BME280;11075;47.944;11.776;2023-02-28T01:57:20;95112.19;;;1.61;21.91
21826;BME280;11075;47.944;11.776;2023-02-28T01:59:57;95114.94;;;2.10;21.13
21826;BME280;11075;47.944;11.776;2023-02-28T02:02:27;95091.97;;;-1.83;26.37
21826;BME280;11075;47.944;11.776;2023-02-28T02:05:04;95090.31;;;-0.04;24.03
21826;BME280;11075;47.944;11.776;2023-02-28T02:07:34;95094.44;;;1.21;22.57
21826;BME280;11075;47.944;11.776;2023-02-28T02:10:24;95097.91;;;1.11;22.76
21826;BME280;11075;47.944;11.776;2023-02-28T02:19:46;95083.06;;;0.90;22.91
21826;BME280;11075;47.944;11.776;2023-02-28T02:27:23;95088.88;;;0.46;22.62
21826;BME280;11075;47.944;11.776;2023-02-28T02:41:46;95089.34;;;0.28;22.81
21826;BME280;11075;47.944;11.776;2023-02-28T02:44:36;95082.25;;;0.48;23.49
21826;BME280;11075;47.944;11.776;2023-02-28T02:47:10;95087.03;;;0.57;22.92
21826;BME280;11075;47.944;11.776;2023-02-28T02:49:42;95089.34;;;1.49;22.41
21826;BME280;11075;47.944;11.776;2023-02-28T02:52:12;95081.97;;;1.11;22.98
21826;BME280;11075;47.944;11.776;2023-02-28T02:54:44;95083.56;;;1.22;22.21
21826;BME280;11075;47.944;11.776;2023-02-28T02:57:20;95087.22;;;1.62;22.12
21826;BME280;11075;47.944;11.776;2023-02-28T02:59:50;95084.75;;;-0.02;23.69
21826;BME280;11075;47.944;11.776;2023-02-28T03:02:21;95072.91;;;-0.89;24.35
21826;BME280;11075;47.944;11.776;2023-02-28T03:04:52;95088.91;;;2.07;21.40
21826;BME280;11075;47.944;11.776;2023-02-28T03:07:20;95097.28;;;1.55;21.69
21826;BME280;11075;47.944;11.776;2023-02-28T03:09:52;95095.16;;;2.31;20.92
21826;BME280;11075;47.944;11.776;2023-02-28T03:12:20;95091.50;;;1.37;21.81
21826;BME280;11075;47.944;11.776;2023-02-28T03:30:58;95091.94;;;1.80;20.97
21826;BME280;11075;47.944;11.776;2023-02-28T03:33:37;95084.84;;;1.40;21.94
21826;BME280;11075;47.944;11.776;2023-02-28T03:36:17;95083.59;;;0.76;22.50
21826;BME280;11075;47.944;11.776;2023-02-28T03:38:51;95084.00;;;0.07;22.71
21826;BME280;11075;47.944;11.776;2023-02-28T03:41:22;95073.47;;;-0.40;23.34
21826;BME280;11075;47.944;11.776;2023-02-28T03:43:56;95085.94;;;1.18;21.84
21826;BME280;11075;47.944;11.776;2023-02-28T03:46:27;95080.22;;;-1.07;24.41
21826;BME280;11075;47.944;11.776;2023-02-28T03:49:19;95086.75;;;0.48;22.82
21826;BME280;11075;47.944;11.776;2023-02-28T03:51:49;95090.03;;;-1.02;24.00
21826;BME280;11075;47.944;11.776;2023-02-28T03:54:30;95097.84;;;1.51;21.45
21826;BME280;11075;47.944;11.776;2023-02-28T03:59:59;95095.00;;;-0.21;23.26
21826;BME280;11075;47.944;11.776;2023-02-28T04:02:27;95107.94;;;1.49;21.61
21826;BME280;11075;47.944;11.776;2023-02-28T04:04:54;95104.81;;;0.97;22.08
21826;BME280;11075;47.944;11.776;2023-02-28T04:07:21;95114.53;;;0.30;23.25
21826;BME280;11075;47.944;11.776;2023-02-28T04:09:47;95115.16;;;1.03;22.01
21826;BME280;11075;47.944;11.776;2023-02-28T04:12:14;95121.38;;;0.16;22.69
21826;BME280;11075;47.944;11.776;2023-02-28T04:14:41;95140.81;;;1.79;20.59
21826;BME280;11075;47.944;11.776;2023-02-28T04:17:09;95127.56;;;0.42;22.20
21826;BME280;11075;47.944;11.776;2023-02-28T04:19:35;95142.59;;;2.04;20.54
21826;BME280;11075;47.944;11.776;2023-02-28T04:22:02;95135.06;;;1.16;21.45
21826;BME280;11075;47.944;11.776;2023-02-28T04:24:29;95135.84;;;0.76;22.06
21826;BME280;11075;47.944;11.776;2023-02-28T04:26:57;95131.63;;;1.00;21.74
21826;BME280;11075;47.944;11.776;2023-02-28T04:29:29;95128.69;;;1.22;21.77
21826;BME280;11075;47.944;11.776;2023-02-28T04:32:00;95129.66;;;0.35;22.21
21826;BME280;11075;47.944;11.776;2023-02-28T04:34:29;95122.69;;;0.08;22.78
21826;BME280;11075;47.944;11.776;2023-02-28T04:36:56;95121.25;;;0.73;22.23
21826;BME280;11075;47.944;11.776;2023-02-28T04:39:39;95123.38;;;1.02;22.25
21826;BME280;11075;47.944;11.776;2023-02-28T04:42:06;95119.53;;;0.16;23.17
21826;BME280;11075;47.944;11.776;2023-02-28T04:44:34;95111.94;;;-0.27;23.43
21826;BME280;11075;47.944;11.776;2023-02-28T04:47:00;95123.91;;;-0.20;22.57
21826;BME280;11075;47.944;11.776;2023-02-28T04:49:27;95121.16;;;0.38;22.75
21826;BME280;11075;47.944;11.776;2023-02-28T04:51:55;95134.25;;;1.36;21.92
21826;BME280;11075;47.944;11.776;2023-02-28T04:54:22;95134.78;;;0.77;22.22
21826;BME280;11075;47.944;11.776;2023-02-28T04:56:50;95130.41;;;0.20;22.73
21826;BME280;11075;47.944;11.776;2023-02-28T04:59:17;95140.09;;;0.82;22.55
21826;BME280;11075;47.944;11.776;2023-02-28T05:01:48;95129.47;;;0.77;22.79
21826;BME280;11075;47.944;11.776;2023-02-28T05:04:16;95139.03;;;1.39;22.31
21826;BME280;11075;47.944;11.776;2023-02-28T05:06:43;95140.63;;;0.74;22.57
21826;BME280;11075;47.944;11.776;2023-02-28T05:09:10;95124.75;;;-0.04;24.45
21826;BME280;11075;47.944;11.776;2023-02-28T05:11:40;95148.03;;;2.87;20.94
21826;BME280;11075;47.944;11.776;2023-02-28T05:14:11;95134.53;;;1.09;23.07
21826;BME280;11075;47.944;11.776;2023-02-28T05:16:39;95135.88;;;0.96;23.18
21826;BME280;11075;47.944;11.776;2023-02-28T05:19:05;95141.38;;;2.40;21.95
21826;BME280;11075;47.944;11.776;2023-02-28T05:21:35;95130.81;;;1.25;23.09
21826;BME280;11075;47.944;11.776;2023-02-28T05:24:05;95136.56;;;2.47;22.09
21826;BME280;11075;47.944;11.776;2023-02-28T05:26:41;95129.22;;;1.09;23.86
21826;BME280;11075;47.944;11.776;2023-02-28T05:29:09;95135.06;;;2.75;22.17
21826;BME280;11075;47.944;11.776;2023-02-28T05:31:36;95133.16;;;0.45;24.48
21826;BME280;11075;47.944;11.776;2023-02-28T05:34:03;95125.63;;;0.22;24.92
21826;BME280;11075;47.944;11.776;2023-02-28T05:36:33;95128.34;;;-0.30;25.63
21826;BME280;11075;47.944;11.776;2023-02-28T05:38:59;95137.13;;;2.39;22.71
21826;BME280;11075;47.944;11.776;2023-02-28T05:41:26;95127.63;;;1.13;24.25
21826;BME280;11075;47.944;11.776;2023-02-28T05:43:54;95132.09;;;2.33;22.97
21826;BME280;11075;47.944;11.776;2023-02-28T05:46:21;95139.47;;;1.92;23.14
21826;BME280;11075;47.944;11.776;2023-02-28T05:48:48;95138.56;;;0.03;25.07
21826;BME280;11075;47.944;11.776;2023-02-28T05:51:16;95138.25;;;0.77;24.52
21826;BME280;11075;47.944;11.776;2023-02-28T05:53:43;95141.69;;;0.78;24.47
21826;BME280;11075;47.944;11.776;2023-02-28T05:56:11;95140.66;;;-0.04;25.03
21826;BME280;11075;47.944;11.776;2023-02-28T05:58:38;95132.91;;;0.62;25.35
21826;BME280;11075;47.944;11.776;2023-02-28T06:03:49;95136.13;;;0.79;24.84
21826;BME280;11075;47.944;11.776;2023-02-28T06:06:16;95126.47;;;-3.56;29.88
21826;BME280;11075;47.944;11.776;2023-02-28T06:08:43;95138.78;;;1.15;24.85
21826;BME280;11075;47.944;11.776;2023-02-28T06:11:11;95145.09;;;0.48;25.05
21826;BME280;11075;47.944;11.776;2023-02-28T06:13:38;95126.03;;;0.66;27.54
21826;BME280;11075;47.944;11.776;2023-02-28T06:16:06;95141.16;;;-0.12;25.80
21826;BME280;11075;47.944;11.776;2023-02-28T06:18:33;95152.31;;;1.03;24.51
21826;BME280;11075;47.944;11.776;2023-02-28T06:21:00;95151.38;;;0.37;25.28
21826;BME280;11075;47.944;11.776;2023-02-28T06:23:27;95134.50;;;-0.20;26.26
21826;BME280;11075;47.944;11.776;2023-02-28T06:25:54;95137.19;;;0.94;25.08
21826;BME280;11075;47.944;11.776;2023-02-28T06:28:25;95151.63;;;-0.32;25.93
21826;BME280;11075;47.944;11.776;2023-02-28T06:30:52;95147.59;;;-0.45;26.04
21826;BME280;11075;47.944;11.776;2023-02-28T06:33:19;95151.25;;;0.79;24.57
21826;BME280;11075;47.944;11.776;2023-02-28T06:35:52;95147.38;;;-0.38;26.50
21826;BME280;11075;47.944;11.776;2023-02-28T06:38:19;95169.31;;;2.38;23.15
21826;BME280;11075;47.944;11.776;2023-02-28T06:40:55;95156.81;;;1.23;24.66
21826;BME280;11075;47.944;11.776;2023-02-28T06:43:24;95154.88;;;-0.99;26.98
21826;BME280;11075;47.944;11.776;2023-02-28T06:45:54;95167.78;;;2.22;23.65
21826;BME280;11075;47.944;11.776;2023-02-28T06:48:22;95167.38;;;0.57;24.83
21826;BME280;11075;47.944;11.776;2023-02-28T06:50:49;95159.63;;;-0.22;26.26
21826;BME280;11075;47.944;11.776;2023-02-28T06:53:16;95168.50;;;1.02;25.00
21826;BME280;11075;47.944;11.776;2023-02-28T06:55:43;95188.41;;;1.50;24.13
21826;BME280;11075;47.944;11.776;2023-02-28T06:58:10;95167.72;;;-0.44;26.82
21826;BME280;11075;47.944;11.776;2023-02-28T07:00:52;95178.97;;;-1.98;28.08
21826;BME280;11075;47.944;11.776;2023-02-28T07:03:19;95187.63;;;1.60;24.48
21826;BME280;11075;47.944;11.776;2023-02-28T07:05:46;95163.78;;;-0.79;27.72
21826;BME280;11075;47.944;11.776;2023-02-28T07:08:14;95179.16;;;-2.05;28.42
21826;BME280;11075;47.944;11.776;2023-02-28T07:10:41;95165.75;;;-2.37;29.11
21826;BME280;11075;47.944;11.776;2023-02-28T07:13:08;95161.44;;;-2.82;29.89
21826;BME280;11075;47.944;11.776;2023-02-28T07:15:36;95186.53;;;0.84;25.39
21826;BME280;11075;47.944;11.776;2023-02-28T07:18:07;95177.50;;;1.82;24.45
21826;BME280;11075;47.944;11.776;2023-02-28T07:20:35;95169.69;;;-0.66;27.42
21826;BME280;11075;47.944;11.776;2023-02-28T07:23:01;95166.13;;;1.15;25.47
21826;BME280;11075;47.944;11.776;2023-02-28T07:25:29;95169.53;;;-0.50;27.00
21826;BME280;11075;47.944;11.776;2023-02-28T07:27:56;95165.31;;;-0.51;27.42
21826;BME280;11075;47.944;11.776;2023-02-28T07:30:23;95179.38;;;0.07;26.14
21826;BME280;11075;47.944;11.776;2023-02-28T07:32:50;95184.41;;;0.81;25.24
21826;BME280;11075;47.944;11.776;2023-02-28T07:35:17;95181.97;;;-0.08;26.26
21826;BME280;11075;47.944;11.776;2023-02-28T07:37:44;95172.47;;;0.94;25.48
21826;BME280;11075;47.944;11.776;2023-02-28T07:40:11;95165.19;;;-1.30;27.97
21826;BME280;11075;47.944;11.776;2023-02-28T07:42:40;95171.69;;;-1.64;27.32
21826;BME280;11075;47.944;11.776;2023-02-28T07:45:09;95165.44;;;0.37;26.48
21826;BME280;11075;47.944;11.776;2023-02-28T07:47:38;95173.44;;;-2.36;28.96
21826;BME280;11075;47.944;11.776;2023-02-28T07:50:07;95178.34;;;-2.44;28.89
21826;BME280;11075;47.944;11.776;2023-02-28T07:52:36;95169.97;;;-0.95;27.66
21826;BME280;11075;47.944;11.776;2023-02-28T07:55:04;95158.00;;;-4.65;32.90
21826;BME280;11075;47.944;11.776;2023-02-28T07:57:32;95182.69;;;0.40;25.91
21826;BME280;11075;47.944;11.776;2023-02-28T08:00:06;95179.50;;;-3.52;30.38
21826;BME280;11075;47.944;11.776;2023-02-28T08:02:37;95180.28;;;-1.25;27.62
21826;BME280;11075;47.944;11.776;2023-02-28T08:05:04;95169.31;;;-3.32;30.46
21826;BME280;11075;47.944;11.776;2023-02-28T08:07:32;95173.44;;;-2.36;28.90
21826;BME280;11075;47.944;11.776;2023-02-28T08:10:00;95173.81;;;-1.88;28.44
21826;BME280;11075;47.944;11.776;2023-02-28T08:12:26;95163.09;;;-2.59;30.35
21826;BME280;11075;47.944;11.776;2023-02-28T08:14:53;95177.44;;;-2.33;28.76
21826;BME280;11075;47.944;11.776;2023-02-28T08:17:20;95180.31;;;-0.93;26.91
21826;BME280;11075;47.944;11.776;2023-02-28T08:19:47;95183.28;;;2.04;24.25
21826;BME280;11075;47.944;11.776;2023-02-28T08:22:13;95176.75;;;0.12;26.49
21826;BME280;11075;47.944;11.776;2023-02-28T08:24:42;95181.25;;;1.35;24.79
21826;BME280;11075;47.944;11.776;2023-02-28T08:27:10;95179.41;;;0.12;26.19
21826;BME280;11075;47.944;11.776;2023-02-28T08:29:38;95183.50;;;-0.91;26.57
21826;BME280;11075;47.944;11.776;2023-02-28T08:32:06;95182.84;;;0.96;25.54
21826;BME280;11075;47.944;11.776;2023-02-28T08:34:49;95190.75;;;-0.45;26.43
21826;BME280;11075;47.944;11.776;2023-02-28T08:37:16;95197.69;;;0.97;25.55
21826;BME280;11075;47.944;11.776;2023-02-28T08:39:43;95220.03;;;1.62;23.90
21826;BME280;11075;47.944;11.776;2023-02-28T08:42:10;95205.72;;;-1.19;27.65
21826;BME280;11075;47.944;11.776;2023-02-28T08:44:37;95189.19;;;-3.70;31.23
21826;BME280;11075;47.944;11.776;2023-02-28T08:47:04;95203.13;;;-1.14;27.32
21826;BME280;11075;47.944;11.776;2023-02-28T08:49:32;95210.91;;;-2.00;28.20
21826;BME280;11075;47.944;11.776;2023-02-28T08:51:58;95205.59;;;-2.39;29.28
21826;BME280;11075;47.944;11.776;2023-02-28T08:54:25;95201.72;;;0.27;26.87
21826;BME280;11075;47.944;11.776;2023-02-28T08:56:52;95224.81;;;0.36;25.72
21826;BME280;11075;47.944;11.776;2023-02-28T08:59:19;95212.84;;;1.27;25.36
21826;BME280;11075;47.944;11.776;2023-02-28T09:01:47;95247.41;;;2.72;23.12
21826;BME280;11075;47.944;11.776;2023-02-28T09:04:13;95235.84;;;0.65;25.14
21826;BME280;11075;47.944;11.776;2023-02-28T09:06:45;95241.94;;;2.33;23.99
21826;BME280;11075;47.944;11.776;2023-02-28T09:09:12;95254.97;;;2.99;22.82
21826;BME280;11075;47.944;11.776;2023-02-28T09:11:39;95248.06;;;0.76;25.58
21826;BME280;11075;47.944;11.776;2023-02-28T09:14:06;95242.84;;;1.52;24.57
21826;BME280;11075;47.944;11.776;2023-02-28T09:16:33;95225.47;;;-2.70;29.67
21826;BME280;11075;47.944;11.776;2023-02-28T09:19:01;95242.00;;;2.08;24.52
21826;BME280;11075;47.944;11.776;2023-02-28T09:21:28;95257.09;;;-0.24;26.14
21826;BME280;11075;47.944;11.776;2023-02-28T09:23:55;95246.47;;;-2.24;28.27
21826;BME280;11075;47.944;11.776;2023-02-28T09:26:25;95232.09;;;-1.51;28.66
21826;BME280;11075;47.944;11.776;2023-02-28T09:29:00;95232.22;;;1.22;25.66
21826;BME280;11075;47.944;11.776;2023-02-28T09:31:29;95250.69;;;2.44;23.97
21826;BME280;11075;47.944;11.776;2023-02-28T09:33:57;95245.84;;;0.01;26.61
21826;BME280;11075;47.944;11.776;2023-02-28T09:36:26;95248.94;;;-1.09;27.83
21826;BME280;11075;47.944;11.776;2023-02-28T09:39:09;95256.53;;;2.41;24.32
21826;BME280;11075;47.944;11.776;2023-02-28T09:41:40;95271.81;;;3.34;23.20
21826;BME280;11075;47.944;11.776;2023-02-28T09:44:29;95270.38;;;2.38;24.25
21826;BME280;11075;47.944;11.776;2023-02-28T09:47:16;95267.81;;;1.97;24.52
21826;BME280;11075;47.944;11.776;2023-02-28T09:49:46;95269.59;;;2.37;24.27
21826;BME280;11075;47.944;11.776;2023-02-28T09:52:19;95282.38;;;3.44;22.83
21826;BME280;11075;47.944;11.776;2023-02-28T09:54:48;95276.25;;;-0.12;26.54
21826;BME280;11075;47.944;11.776;2023-02-28T09:57:23;95259.78;;;-1.59;28.92
21826;BME280;11075;47.944;11.776;2023-02-28T10:00:07;95251.38;;;1.80;26.99
21826;BME280;11075;47.944;11.776;2023-02-28T10:05:35;95278.03;;;-1.09;27.61
21826;BME280;11075;47.944;11.776;2023-02-28T10:13:16;95297.13;;;3.70;22.59
21826;BME280;11075;47.944;11.776;2023-02-28T10:15:47;95309.25;;;3.03;23.22
21826;BME280;11075;47.944;11.776;2023-02-28T10:18:21;95308.69;;;2.32;23.71
21826;BME280;11075;47.944;11.776;2023-02-28T10:20:51;95313.97;;;5.00;21.28
21826;BME280;11075;47.944;11.776;2023-02-28T10:23:32;95313.81;;;2.98;23.15
21826;BME280;11075;47.944;11.776;2023-02-28T10:26:11;95285.03;;;-1.68;29.02
21826;BME280;11075;47.944;11.776;2023-02-28T10:28:39;95289.34;;;-0.32;27.50
21826;BME280;11075;47.944;11.776;2023-02-28T10:31:11;95276.72;;;-1.55;29.13
21826;BME280;11075;47.944;11.776;2023-02-28T10:33:41;95287.03;;;-1.10;28.07
21826;BME280;11075;47.944;11.776;2023-02-28T10:36:13;95298.59;;;0.02;26.14
21826;BME280;11075;47.944;11.776;2023-02-28T10:38:41;95304.44;;;0.46;25.61
21826;BME280;11075;47.944;11.776;2023-02-28T10:41:11;95301.78;;;0.04;26.33
21826;BME280;11075;47.944;11.776;2023-02-28T10:43:41;95299.84;;;-0.75;27.53
21826;BME280;11075;47.944;11.776;2023-02-28T10:48:44;95304.25;;;0.16;27.15
21826;BME280;11075;47.944;11.776;2023-02-28T10:51:14;95327.00;;;3.23;22.98
21826;BME280;11075;47.944;11.776;2023-02-28T10:53:52;95323.34;;;2.19;24.32
21826;BME280;11075;47.944;11.776;2023-02-28T10:56:29;95331.78;;;2.57;23.80
21826;BME280;11075;47.944;11.776;2023-02-28T11:01:43;95331.56;;;1.51;25.12
21826;BME280;11075;47.944;11.776;2023-02-28T11:09:35;95308.91;;;0.41;26.60
21826;BME280;11075;47.944;11.776;2023-02-28T11:12:20;95305.94;;;0.32;26.67
21826;BME280;11075;47.944;11.776;2023-02-28T11:14:58;95313.81;;;0.64;25.99
21826;BME280;11075;47.944;11.776;2023-02-28T11:17:29;95315.66;;;2.02;24.78
21826;BME280;11075;47.944;11.776;2023-02-28T11:20:00;95315.16;;;0.72;26.55
21826;BME280;11075;47.944;11.776;2023-02-28T11:22:33;95317.41;;;-0.63;26.97
21826;BME280;11075;47.944;11.776;2023-02-28T11:25:08;95336.84;;;4.64;21.66
21826;BME280;11075;47.944;11.776;2023-02-28T11:30:05;95327.69;;;3.83;22.62
21826;BME280;11075;47.944;11.776;2023-02-28T11:32:49;95327.72;;;2.85;23.49
21826;BME280;11075;47.944;11.776;2023-02-28T11:35:36;95326.84;;;4.22;21.97
21826;BME280;11075;47.944;11.776;2023-02-28T11:38:11;95341.03;;;2.85;22.81
21826;BME280;11075;47.944;11.776;2023-02-28T11:40:48;95324.88;;;1.24;24.52
21826;BME280;11075;47.944;11.776;2023-02-28T11:43:36;95330.72;;;4.05;22.46
21826;BME280;11075;47.944;11.776;2023-02-28T11:54:59;95331.75;;;4.10;22.42
21826;BME280;11075;47.944;11.776;2023-02-28T12:06:01;95317.09;;;-0.03;26.06
21826;BME280;11075;47.944;11.776;2023-02-28T12:16:51;95340.25;;;3.33;22.22
21826;BME280;11075;47.944;11.776;2023-02-28T12:19:29;95304.53;;;3.79;23.38
21826;BME280;11075;47.944;11.776;2023-02-28T12:27:22;95291.44;;;0.45;26.29
21826;BME280;11075;47.944;11.776;2023-02-28T12:29:53;95307.06;;;3.60;22.95
21826;BME280;11075;47.944;11.776;2023-02-28T12:32:26;95297.44;;;4.51;22.36
21826;BME280;11075;47.944;11.776;2023-02-28T12:35:12;95295.19;;;3.42;23.34
21826;BME280;11075;47.944;11.776;2023-02-28T12:40:13;95303.16;;;4.15;22.27
21826;BME280;11075;47.944;11.776;2023-02-28T12:43:08;95309.00;;;4.17;22.30
21826;BME280;11075;47.944;11.776;2023-02-28T12:45:50;95304.06;;;2.78;23.45
21826;BME280;11075;47.944;11.776;2023-02-28T12:48:33;95298.69;;;6.14;20.92
21826;BME280;11075;47.944;11.776;2023-02-28T12:51:05;95280.28;;;1.21;25.59
21826;BME280;11075;47.944;11.776;2023-02-28T12:59:10;95322.91;;;4.14;21.71
21826;BME280;11075;47.944;11.776;2023-02-28T13:09:58;95307.69;;;6.50;20.41
21826;BME280;11075;47.944;11.776;2023-02-28T13:12:26;95334.97;;;6.93;19.77
21826;BME280;11075;47.944;11.776;2023-02-28T13:17:39;95310.84;;;5.74;21.69
21826;BME280;11075;47.944;11.776;2023-02-28T13:20:19;95324.75;;;8.17;19.31
21826;BME280;11075;47.944;11.776;2023-02-28T13:22:49;95345.53;;;8.96;17.58
21826;BME280;11075;47.944;11.776;2023-02-28T13:28:01;95333.69;;;9.63;17.65
21826;BME280;11075;47.944;11.776;2023-02-28T13:38:53;95315.56;;;3.62;23.00
21826;BME280;11075;47.944;11.776;2023-02-28T13:49:26;95318.47;;;3.70;22.39
21826;BME280;11075;47.944;11.776;2023-02-28T14:03:18;95323.16;;;6.94;19.71
21826;BME280;11075;47.944;11.776;2023-02-28T14:06:25;95303.25;;;2.83;24.40
21826;BME280;11075;47.944;11.776;2023-02-28T14:09:01;95307.88;;;6.40;21.04
21826;BME280;11075;47.944;11.776;2023-02-28T14:11:36;95321.88;;;7.06;19.30
21826;BME280;11075;47.944;11.776;2023-02-28T14:14:06;95313.09;;;7.77;19.40
21826;BME280;11075;47.944;11.776;2023-02-28T14:16:37;95318.81;;;6.99;20.15
21826;BME280;11075;47.944;11.776;2023-02-28T14:19:15;95317.22;;;8.28;19.05
21826;BME280;11075;47.944;11.776;2023-02-28T14:35:35;95299.38;;;6.52;20.41
21826;BME280;11075;47.944;11.776;2023-02-28T14:38:08;95286.34;;;3.07;24.35
21826;BME280;11075;47.944;11.776;2023-02-28T14:40:40;95283.38;;;4.45;23.05
21826;BME280;11075;47.944;11.776;2023-02-28T14:43:26;95291.19;;;6.29;20.98
21826;BME280;11075;47.944;11.776;2023-02-28T14:46:02;95283.19;;;3.00;24.00
21826;BME280;11075;47.944;11.776;2023-02-28T14:48:31;95303.03;;;8.05;19.43
21826;BME280;11075;47.944;11.776;2023-02-28T14:50:59;95313.97;;;8.40;19.25
21826;BME280;11075;47.944;11.776;2023-02-28T14:53:29;95297.53;;;4.69;22.20
21826;BME280;11075;47.944;11.776;2023-02-28T14:55:56;95311.56;;;6.12;20.23
21826;BME280;11075;47.944;11.776;2023-02-28T14:58:30;95278.66;;;2.21;24.90
21826;BME280;11075;47.944;11.776;2023-02-28T15:01:03;95309.25;;;8.14;19.86
21826;BME280;11075;47.944;11.776;2023-02-28T15:03:35;95317.81;;;7.22;19.21
21826;BME280;11075;47.944;11.776;2023-02-28T15:06:16;95316.16;;;6.25;20.89
21826;BME280;11075;47.944;11.776;2023-02-28T15:08:44;95307.94;;;4.42;22.37
21826;BME280;11075;47.944;11.776;2023-02-28T15:11:17;95307.59;;;5.77;21.51
21826;BME280;11075;47.944;11.776;2023-02-28T15:13:54;95303.47;;;3.40;23.31
21826;BME280;11075;47.944;11.776;2023-02-28T15:19:11;95297.50;;;5.55;21.75
21826;BME280;11075;47.944;11.776;2023-02-28T15:21:44;95308.00;;;5.84;21.43
21826;BME280;11075;47.944;11.776;2023-02-28T15:26:53;95310.72;;;6.30;20.89
21826;BME280;11075;47.944;11.776;2023-02-28T15:29:23;95323.56;;;7.87;19.24
21826;BME280;11075;47.944;11.776;2023-02-28T15:31:55;95329.06;;;8.27;18.99
21826;BME280;11075;47.944;11.776;2023-02-28T15:34:41;95327.31;;;6.46;20.47
21826;BME280;11075;47.944;11.776;2023-02-28T15:37:33;95304.56;;;5.27;21.77
21826;BME280;11075;47.944;11.776;2023-02-28T15:42:42;95321.34;;;7.45;19.49
21826;BME280;11075;47.944;11.776;2023-02-28T15:45:32;95319.09;;;7.60;19.40
21826;BME280;11075;47.944;11.776;2023-02-28T15:48:05;95319.97;;;7.34;19.99
21826;BME280;11075;47.944;11.776;2023-02-28T15:50:40;95327.09;;;8.41;19.16
21826;BME280;11075;47.944;11.776;2023-02-28T15:53:19;95320.47;;;9.18;19.23
21826;BME280;11075;47.944;11.776;2023-02-28T15:56:03;95327.47;;;6.36;20.70
21826;BME280;11075;47.944;11.776;2023-02-28T15:58:32;95333.66;;;3.70;22.27
21826;BME280;11075;47.944;11.776;2023-02-28T16:01:07;95325.09;;;6.02;20.86
21826;BME280;11075;47.944;11.776;2023-02-28T16:03:45;95320.78;;;6.79;20.64
21826;BME280;11075;47.944;11.776;2023-02-28T16:08:48;95342.41;;;8.41;18.79
21826;BME280;11075;47.944;11.776;2023-02-28T16:11:18;95347.56;;;8.60;18.23